• Join FlightAware (Why Join?)
  • Login
  • US Flag 
12:50PM EDT


 

Airport Tracker/Info


-or-


 

Live Flight TrackerFlight Track Log ✈ FLG3861 ✈ 12-Sep-2013 ✈ KDTW - KBGM

Flight Track Log - Related Links

Times and Time Zones

All times are in EDT time to prevent confusion due to time zone crossing. See the FLG3861 flight status page for this flight to view local times or setup timezone preferences in your user account.

Time Position Orientation Groundspeed Altitude Reporting Facility
EDT Latitude Longitude Course Direction KTS MPH feet Rate Location/Type
10:12PM 42.2289 -83.3539 38° Northeast 150 173 1,600  Level Cleveland Center
10:12PM 42.2417 -83.3403 38° Northeast 164 189 2,500 1,860 Climbing Cleveland Center
10:13PM 42.2736 -83.3053 39° Northeast 180 207 4,100 1,980 Climbing Cleveland Center
10:14PM 42.2800 -83.2100 85° East 210 242 6,300 2,340 Climbing Cleveland Center
10:15PM 42.2636 -83.1028 102° East 246 283 8,800 2,100 Climbing Cleveland Center
10:16PM 42.2747 -82.9853 83° East 280 322 10,500 1,440 Climbing Cleveland Center
10:17PM 42.2983 -82.8486 77° East 332 382 11,700 1,500 Climbing Cleveland Center
10:18PM 42.3239 -82.7064 76° East 362 417 13,600 1,680 Climbing Cleveland Center
10:19PM 42.3472 -82.5581 78° East 386 444 15,100 1,500 Climbing Cleveland Center
10:20PM 42.3561 -82.4094 85° East 398 458 16,600 1,500 Climbing Cleveland Center
10:21PM 42.3583 -82.2550 89° East 403 464 18,100 1,320 Climbing Cleveland Center
10:22PM 42.3586 -82.0978 90° East 409 471 19,300 1,140 Climbing Cleveland Center
10:23PM 42.3583 -81.9375 90° East 415 478 20,400 1,200 Climbing Cleveland Center
10:24PM 42.3603 -81.7717 89° East 425 489 21,700 1,140 Climbing Cleveland Center
10:25PM 42.3578 -81.6086 91° East 425 489 22,700 960 Climbing Cleveland Center
10:26PM 42.3589 -81.4431 89° East 431 496 23,700 960 Climbing Cleveland Center
10:27PM 42.3561 -81.2744 91° East 437 503 24,700 720 Climbing Cleveland Center
10:28PM 42.3528 -81.1058 91° East 442 509 25,200 540 Climbing Cleveland Center
10:29PM 42.3556 -80.9344 89° East 442 509 25,800 600 Climbing Cleveland Center
10:30PM 42.3539 -80.7603 91° East 448 516 26,400 540 Climbing Cleveland Center
10:31PM 42.3519 -80.5775 91° East 466 536 26,900 300 Climbing Cleveland Center
10:32PM 42.3517 -80.3978 90° East 477 549 27,000  Climbing Cleveland Center
10:33PM 42.3492 -80.2067 91° East 463 533 26,900 -900 Descending Cleveland Center
10:34PM 42.3442 -80.0269 92° East 463 533 25,200 -960 Descending Cleveland Center
10:35PM 42.3433 -79.8642 90° East 451 519 25,000 -120 Descending Cleveland Center
10:36PM 42.3400 -79.6872 91° East 451 519 25,000  Level Cleveland Center
10:37PM 42.3344 -79.5103 92° East 464 534 25,000  Level Cleveland Center
10:38PM 42.3325 -79.3222 91° East 475 547 25,000  Level Cleveland Center
10:39PM 42.3281 -79.1339 92° East 486 559 25,000  Level Cleveland Center
10:40PM 42.3214 -78.9489 93° East 491 565 25,000  Level Cleveland Center
10:41PM 42.3186 -78.7608 91° East 497 572 25,000  Level Cleveland Center
10:42PM 42.3136 -78.5728 92° East 497 572 25,000 -360 Level Cleveland Center
10:43PM 42.3081 -78.3847 92° East 497 572 24,300 -1,440 Descending Cleveland Center
10:44PM 42.3022 -78.1997 92° East 497 572 22,200 -2,100 Descending Cleveland Center
10:45PM 42.2964 -78.0231 92° East 486 559 20,200 -1,620 Descending Cleveland Center
10:47PM 42.2819 -77.6908 93° East 423 487 17,100 -1,020 Descending New York Center
10:48PM 42.2764 -77.5361 93° East 408 470 17,000 -60 Descending New York Center
10:49PM 42.2703 -77.3842 93° East 408 470 17,000  Level New York Center
10:50PM 42.2661 -77.2325 92° East 408 470 17,000  Level New York Center
10:51PM 42.2597 -77.0778 93° East 408 470 17,000 -840 Level New York Center
10:52PM 42.2531 -76.9286 93° East 408 470 15,400 -1,800 Descending New York Center
10:53PM 42.2478 -76.7881 93° East 393 452 13,400 -2,100 Descending New York Center
10:54PM 42.2383 -76.6442 95° East 368 423 11,300 -1,620 Descending New York Center
10:55PM 42.2208 -76.5306 102° East 336 387 10,200 -1,440 Descending New York Center
10:56PM 42.1906 -76.4272 112° Southeast 305 351 8,500 -1,740 Descending New York Center
10:57PM 42.1617 -76.3297 112° Southeast 293 337 6,800 -1,620 Descending New York Center
10:58PM 42.1328 -76.2350 112° Southeast 280 322 5,300 -1,440 Descending New York Center
10:59PM 42.0994 -76.1456 117° Southeast 270 311 4,000 -660 Descending New York Center
11:00PM 42.0719 -76.0622 114° Southeast 256 295 4,000  Level New York Center
11:01PM 42.0481 -75.9933 115° Southeast 246 283 4,000  Level New York Center
11:02PM 42.0203 -75.9103 114° Southeast 222 255 4,000  Level New York Center
11:03PM 42.0436 -75.8561 60° Northeast 164 189 4,000  Level New York Center
11:04PM 42.0900 -75.8850 335° Northwest 132 152 4,000 -360 Level New York Center
11:05PM 42.1306 -75.9161 330° Northwest 137 158 3,300 -720 Descending New York Center
11:07PM 42.2000 -75.9667 North  Level FlightAware Approximate
11:14PM 42.2084 -75.9796 North  Level Estimated
11:15PM 42.2084 -75.9796 North  Level Estimated
11:16PM 42.2084 -75.9796 North  Level Estimated
11:17PM 42.2084 -75.9796 North  Level Estimated
11:18PM 42.2084 -75.9796 North  Level Estimated
11:19PM 42.2084 -75.9796 North  Level Estimated
11:20PM 42.2084 -75.9796 North  Level Estimated